sensor_id;sensor_type;location;lat;lon;timestamp;P1;durP1;ratioP1;P2;durP2;ratioP2
60068;SDS011;45945;53.350;55.922;2022-09-09T00:00:55;10.48;;;6.53;;
60068;SDS011;45945;53.350;55.922;2022-09-09T00:03:27;9.63;;;6.50;;
60068;SDS011;45945;53.350;55.922;2022-09-09T00:04:37;11.88;;;6.88;;
60068;SDS011;45945;53.350;55.922;2022-09-09T00:05:42;10.38;;;6.78;;
60068;SDS011;45945;53.350;55.922;2022-09-09T00:06:55;10.85;;;6.47;;
60068;SDS011;45945;53.350;55.922;2022-09-09T00:08:04;31.23;;;22.90;;
60068;SDS011;45945;53.350;55.922;2022-09-09T00:11:24;11.88;;;7.03;;
60068;SDS011;45945;53.350;55.922;2022-09-09T00:13:52;10.00;;;5.80;;
60068;SDS011;45945;53.350;55.922;2022-09-09T00:16:20;9.70;;;6.13;;
60068;SDS011;45945;53.350;55.922;2022-09-09T00:20:12;9.00;;;5.93;;
60068;SDS011;45945;53.350;55.922;2022-09-09T00:21:35;10.70;;;6.30;;
60068;SDS011;45945;53.350;55.922;2022-09-09T00:22:48;11.63;;;6.75;;
60068;SDS011;45945;53.350;55.922;2022-09-09T00:23:56;11.00;;;6.50;;
60068;SDS011;45945;53.350;55.922;2022-09-09T00:25:02;10.93;;;6.70;;
60068;SDS011;45945;53.350;55.922;2022-09-09T00:28:36;10.57;;;6.20;;
60068;SDS011;45945;53.350;55.922;2022-09-09T00:30:13;11.18;;;6.45;;
60068;SDS011;45945;53.350;55.922;2022-09-09T00:31:20;10.52;;;6.20;;
60068;SDS011;45945;53.350;55.922;2022-09-09T00:32:30;9.73;;;5.57;;
60068;SDS011;45945;53.350;55.922;2022-09-09T00:33:31;10.93;;;6.22;;
60068;SDS011;45945;53.350;55.922;2022-09-09T00:34:32;10.80;;;6.50;;
60068;SDS011;45945;53.350;55.922;2022-09-09T00:35:34;10.75;;;6.40;;
60068;SDS011;45945;53.350;55.922;2022-09-09T00:36:39;10.52;;;6.22;;
60068;SDS011;45945;53.350;55.922;2022-09-09T00:37:41;11.25;;;6.38;;
60068;SDS011;45945;53.350;55.922;2022-09-09T00:38:45;10.85;;;6.57;;
60068;SDS011;45945;53.350;55.922;2022-09-09T00:39:49;12.13;;;6.15;;
60068;SDS011;45945;53.350;55.922;2022-09-09T00:42:24;11.30;;;7.00;;
60068;SDS011;45945;53.350;55.922;2022-09-09T00:43:32;10.02;;;5.60;;
60068;SDS011;45945;53.350;55.922;2022-09-09T00:44:37;10.52;;;5.68;;
60068;SDS011;45945;53.350;55.922;2022-09-09T00:48:26;11.45;;;6.57;;
60068;SDS011;45945;53.350;55.922;2022-09-09T00:49:47;11.00;;;6.32;;
60068;SDS011;45945;53.350;55.922;2022-09-09T00:51:09;10.82;;;5.90;;
60068;SDS011;45945;53.350;55.922;2022-09-09T00:55:19;10.93;;;5.70;;
60068;SDS011;45945;53.350;55.922;2022-09-09T00:57:25;12.60;;;6.50;;
60068;SDS011;45945;53.350;55.922;2022-09-09T00:58:19;9.63;;;5.50;;
60068;SDS011;45945;53.350;55.922;2022-09-09T01:00:44;9.93;;;5.85;;
60068;SDS011;45945;53.350;55.922;2022-09-09T01:01:51;10.45;;;6.57;;
60068;SDS011;45945;53.350;55.922;2022-09-09T01:04:34;10.23;;;6.68;;
60068;SDS011;45945;53.350;55.922;2022-09-09T01:07:33;11.43;;;6.18;;
60068;SDS011;45945;53.350;55.922;2022-09-09T01:10:07;10.23;;;6.22;;
60068;SDS011;45945;53.350;55.922;2022-09-09T01:11:21;15.57;;;9.63;;
60068;SDS011;45945;53.350;55.922;2022-09-09T01:12:38;12.73;;;8.05;;
60068;SDS011;45945;53.350;55.922;2022-09-09T01:13:44;10.98;;;6.57;;
60068;SDS011;45945;53.350;55.922;2022-09-09T01:14:49;11.82;;;7.15;;
60068;SDS011;45945;53.350;55.922;2022-09-09T01:15:56;10.73;;;7.22;;
60068;SDS011;45945;53.350;55.922;2022-09-09T01:17:20;10.90;;;6.93;;
60068;SDS011;45945;53.350;55.922;2022-09-09T01:18:37;12.63;;;7.53;;
60068;SDS011;45945;53.350;55.922;2022-09-09T01:20:52;11.35;;;7.47;;
60068;SDS011;45945;53.350;55.922;2022-09-09T01:22:12;15.20;;;6.72;;
60068;SDS011;45945;53.350;55.922;2022-09-09T01:23:30;10.38;;;6.18;;
60068;SDS011;45945;53.350;55.922;2022-09-09T01:26:46;10.73;;;6.60;;
60068;SDS011;45945;53.350;55.922;2022-09-09T01:27:59;11.98;;;7.30;;
60068;SDS011;45945;53.350;55.922;2022-09-09T01:29:14;11.60;;;7.15;;
60068;SDS011;45945;53.350;55.922;2022-09-09T01:30:17;12.48;;;7.60;;
60068;SDS011;45945;53.350;55.922;2022-09-09T01:31:23;13.30;;;7.45;;
60068;SDS011;45945;53.350;55.922;2022-09-09T01:32:42;11.10;;;7.38;;
60068;SDS011;45945;53.350;55.922;2022-09-09T01:33:49;10.85;;;6.88;;
60068;SDS011;45945;53.350;55.922;2022-09-09T01:34:51;12.60;;;7.60;;
60068;SDS011;45945;53.350;55.922;2022-09-09T01:37:21;11.45;;;6.78;;
60068;SDS011;45945;53.350;55.922;2022-09-09T01:38:23;11.90;;;6.60;;
60068;SDS011;45945;53.350;55.922;2022-09-09T01:39:26;13.18;;;7.95;;
60068;SDS011;45945;53.350;55.922;2022-09-09T01:40:35;11.60;;;6.20;;
60068;SDS011;45945;53.350;55.922;2022-09-09T01:41:37;10.43;;;7.07;;
60068;SDS011;45945;53.350;55.922;2022-09-09T01:42:42;12.77;;;7.65;;
60068;SDS011;45945;53.350;55.922;2022-09-09T01:43:43;12.27;;;7.38;;
60068;SDS011;45945;53.350;55.922;2022-09-09T01:44:44;15.13;;;7.22;;
60068;SDS011;45945;53.350;55.922;2022-09-09T01:45:46;12.90;;;7.22;;
60068;SDS011;45945;53.350;55.922;2022-09-09T01:46:50;12.95;;;7.70;;
60068;SDS011;45945;53.350;55.922;2022-09-09T01:47:52;13.68;;;8.77;;
60068;SDS011;45945;53.350;55.922;2022-09-09T01:49:02;17.52;;;7.53;;
60068;SDS011;45945;53.350;55.922;2022-09-09T01:50:06;12.27;;;7.65;;
60068;SDS011;45945;53.350;55.922;2022-09-09T01:51:11;14.00;;;8.27;;
60068;SDS011;45945;53.350;55.922;2022-09-09T01:52:13;14.50;;;8.07;;
60068;SDS011;45945;53.350;55.922;2022-09-09T01:53:14;11.23;;;7.50;;
60068;SDS011;45945;53.350;55.922;2022-09-09T01:54:17;12.02;;;6.97;;
60068;SDS011;45945;53.350;55.922;2022-09-09T01:55:23;12.93;;;7.30;;
60068;SDS011;45945;53.350;55.922;2022-09-09T01:56:42;13.02;;;7.40;;
60068;SDS011;45945;53.350;55.922;2022-09-09T02:03:17;12.45;;;6.35;;
60068;SDS011;45945;53.350;55.922;2022-09-09T02:07:23;11.32;;;6.70;;
60068;SDS011;45945;53.350;55.922;2022-09-09T02:08:50;12.68;;;7.20;;
60068;SDS011;45945;53.350;55.922;2022-09-09T02:11:37;12.20;;;7.20;;
60068;SDS011;45945;53.350;55.922;2022-09-09T02:13:02;14.88;;;7.63;;
60068;SDS011;45945;53.350;55.922;2022-09-09T02:14:08;11.38;;;6.90;;
60068;SDS011;45945;53.350;55.922;2022-09-09T02:15:18;9.95;;;6.65;;
60068;SDS011;45945;53.350;55.922;2022-09-09T02:16:43;12.40;;;7.20;;
60068;SDS011;45945;53.350;55.922;2022-09-09T02:17:50;13.40;;;6.50;;
60068;SDS011;45945;53.350;55.922;2022-09-09T02:18:55;13.00;;;7.35;;
60068;SDS011;45945;53.350;55.922;2022-09-09T02:20:14;11.80;;;7.10;;
60068;SDS011;45945;53.350;55.922;2022-09-09T02:21:27;11.75;;;7.47;;
60068;SDS011;45945;53.350;55.922;2022-09-09T02:22:30;10.23;;;6.90;;
60068;SDS011;45945;53.350;55.922;2022-09-09T02:23:36;11.57;;;7.45;;
60068;SDS011;45945;53.350;55.922;2022-09-09T02:24:42;11.38;;;6.35;;
60068;SDS011;45945;53.350;55.922;2022-09-09T02:25:54;11.43;;;6.20;;
60068;SDS011;45945;53.350;55.922;2022-09-09T02:26:59;12.73;;;7.53;;
60068;SDS011;45945;53.350;55.922;2022-09-09T02:28:07;10.68;;;7.03;;
60068;SDS011;45945;53.350;55.922;2022-09-09T02:29:14;12.88;;;7.20;;
60068;SDS011;45945;53.350;55.922;2022-09-09T02:30:20;11.63;;;7.57;;
60068;SDS011;45945;53.350;55.922;2022-09-09T02:31:30;11.52;;;6.18;;
60068;SDS011;45945;53.350;55.922;2022-09-09T02:32:39;10.52;;;6.95;;
60068;SDS011;45945;53.350;55.922;2022-09-09T02:33:49;11.82;;;7.07;;
60068;SDS011;45945;53.350;55.922;2022-09-09T02:34:56;12.93;;;6.82;;
60068;SDS011;45945;53.350;55.922;2022-09-09T02:36:03;10.13;;;6.35;;
60068;SDS011;45945;53.350;55.922;2022-09-09T02:37:08;12.40;;;7.05;;
60068;SDS011;45945;53.350;55.922;2022-09-09T02:38:13;12.43;;;7.05;;
60068;SDS011;45945;53.350;55.922;2022-09-09T02:39:22;12.32;;;7.45;;
60068;SDS011;45945;53.350;55.922;2022-09-09T02:40:25;13.07;;;7.10;;
60068;SDS011;45945;53.350;55.922;2022-09-09T02:41:33;11.38;;;7.35;;
60068;SDS011;45945;53.350;55.922;2022-09-09T02:42:43;12.57;;;6.80;;
60068;SDS011;45945;53.350;55.922;2022-09-09T02:43:46;12.35;;;6.85;;
60068;SDS011;45945;53.350;55.922;2022-09-09T02:44:49;11.05;;;6.10;;
60068;SDS011;45945;53.350;55.922;2022-09-09T02:45:56;11.65;;;7.70;;
60068;SDS011;45945;53.350;55.922;2022-09-09T02:53:06;11.20;;;6.65;;
60068;SDS011;45945;53.350;55.922;2022-09-09T02:54:13;12.13;;;7.22;;
60068;SDS011;45945;53.350;55.922;2022-09-09T02:55:32;10.57;;;6.40;;
60068;SDS011;45945;53.350;55.922;2022-09-09T02:56:41;10.05;;;6.20;;
60068;SDS011;45945;53.350;55.922;2022-09-09T02:57:50;12.75;;;6.68;;
60068;SDS011;45945;53.350;55.922;2022-09-09T02:58:53;11.73;;;6.88;;
60068;SDS011;45945;53.350;55.922;2022-09-09T02:59:56;11.55;;;7.05;;
60068;SDS011;45945;53.350;55.922;2022-09-09T03:00:59;11.50;;;6.43;;
60068;SDS011;45945;53.350;55.922;2022-09-09T03:02:02;11.45;;;6.30;;
60068;SDS011;45945;53.350;55.922;2022-09-09T03:03:03;11.30;;;5.90;;
60068;SDS011;45945;53.350;55.922;2022-09-09T03:04:06;10.07;;;6.20;;
60068;SDS011;45945;53.350;55.922;2022-09-09T03:05:07;11.38;;;5.53;;
60068;SDS011;45945;53.350;55.922;2022-09-09T03:06:09;12.25;;;5.95;;
60068;SDS011;45945;53.350;55.922;2022-09-09T03:07:13;10.43;;;6.07;;
60068;SDS011;45945;53.350;55.922;2022-09-09T03:08:16;8.15;;;5.40;;
60068;SDS011;45945;53.350;55.922;2022-09-09T03:09:18;10.15;;;5.72;;
60068;SDS011;45945;53.350;55.922;2022-09-09T03:10:19;8.20;;;4.22;;
60068;SDS011;45945;53.350;55.922;2022-09-09T03:11:20;9.32;;;4.97;;
60068;SDS011;45945;53.350;55.922;2022-09-09T03:12:21;8.57;;;4.97;;
60068;SDS011;45945;53.350;55.922;2022-09-09T03:13:22;8.60;;;4.45;;
60068;SDS011;45945;53.350;55.922;2022-09-09T03:14:23;8.98;;;5.57;;
60068;SDS011;45945;53.350;55.922;2022-09-09T03:15:26;8.55;;;4.85;;
60068;SDS011;45945;53.350;55.922;2022-09-09T03:16:30;9.15;;;4.78;;
60068;SDS011;45945;53.350;55.922;2022-09-09T03:17:31;9.85;;;5.57;;
60068;SDS011;45945;53.350;55.922;2022-09-09T03:18:35;8.40;;;4.88;;
60068;SDS011;45945;53.350;55.922;2022-09-09T03:19:36;8.23;;;4.82;;
60068;SDS011;45945;53.350;55.922;2022-09-09T03:20:38;8.80;;;4.85;;
60068;SDS011;45945;53.350;55.922;2022-09-09T03:21:39;9.38;;;4.75;;
60068;SDS011;45945;53.350;55.922;2022-09-09T03:22:40;7.78;;;4.88;;
60068;SDS011;45945;53.350;55.922;2022-09-09T03:23:42;9.00;;;4.72;;
60068;SDS011;45945;53.350;55.922;2022-09-09T03:24:43;8.55;;;4.72;;
60068;SDS011;45945;53.350;55.922;2022-09-09T03:25:47;8.80;;;4.97;;
60068;SDS011;45945;53.350;55.922;2022-09-09T03:26:56;6.75;;;3.42;;
60068;SDS011;45945;53.350;55.922;2022-09-09T03:27:58;7.75;;;4.07;;
60068;SDS011;45945;53.350;55.922;2022-09-09T03:28:59;7.90;;;4.50;;
60068;SDS011;45945;53.350;55.922;2022-09-09T03:30:01;8.35;;;4.32;;
60068;SDS011;45945;53.350;55.922;2022-09-09T03:31:04;7.53;;;4.40;;
60068;SDS011;45945;53.350;55.922;2022-09-09T03:32:10;8.63;;;4.68;;
60068;SDS011;45945;53.350;55.922;2022-09-09T03:33:12;8.43;;;4.32;;
60068;SDS011;45945;53.350;55.922;2022-09-09T03:34:13;8.43;;;4.57;;
60068;SDS011;45945;53.350;55.922;2022-09-09T03:35:14;8.45;;;4.75;;
60068;SDS011;45945;53.350;55.922;2022-09-09T03:36:16;8.00;;;4.82;;
60068;SDS011;45945;53.350;55.922;2022-09-09T03:37:17;7.32;;;4.13;;
60068;SDS011;45945;53.350;55.922;2022-09-09T03:38:20;7.00;;;4.38;;
60068;SDS011;45945;53.350;55.922;2022-09-09T03:39:21;8.68;;;3.97;;
60068;SDS011;45945;53.350;55.922;2022-09-09T03:40:22;9.35;;;4.13;;
60068;SDS011;45945;53.350;55.922;2022-09-09T03:41:23;7.60;;;4.05;;
60068;SDS011;45945;53.350;55.922;2022-09-09T03:42:25;7.20;;;3.85;;
60068;SDS011;45945;53.350;55.922;2022-09-09T03:43:28;7.97;;;4.20;;
60068;SDS011;45945;53.350;55.922;2022-09-09T03:44:30;7.53;;;4.18;;
60068;SDS011;45945;53.350;55.922;2022-09-09T03:45:31;7.15;;;4.10;;
60068;SDS011;45945;53.350;55.922;2022-09-09T03:46:33;6.28;;;3.67;;
60068;SDS011;45945;53.350;55.922;2022-09-09T03:47:34;6.18;;;4.00;;
60068;SDS011;45945;53.350;55.922;2022-09-09T03:48:39;8.05;;;3.80;;
60068;SDS011;45945;53.350;55.922;2022-09-09T03:49:40;7.18;;;4.05;;
60068;SDS011;45945;53.350;55.922;2022-09-09T03:50:48;6.78;;;3.80;;
60068;SDS011;45945;53.350;55.922;2022-09-09T03:51:51;7.95;;;4.57;;
60068;SDS011;45945;53.350;55.922;2022-09-09T03:52:51;8.00;;;4.10;;
60068;SDS011;45945;53.350;55.922;2022-09-09T03:53:55;7.05;;;3.88;;
60068;SDS011;45945;53.350;55.922;2022-09-09T03:54:59;6.95;;;4.00;;
60068;SDS011;45945;53.350;55.922;2022-09-09T03:56:03;7.40;;;3.88;;
60068;SDS011;45945;53.350;55.922;2022-09-09T03:57:07;7.63;;;3.92;;
60068;SDS011;45945;53.350;55.922;2022-09-09T03:58:07;6.68;;;3.65;;
60068;SDS011;45945;53.350;55.922;2022-09-09T03:59:08;6.78;;;4.00;;
60068;SDS011;45945;53.350;55.922;2022-09-09T04:00:09;6.85;;;4.30;;
60068;SDS011;45945;53.350;55.922;2022-09-09T04:01:25;7.72;;;4.20;;
60068;SDS011;45945;53.350;55.922;2022-09-09T04:02:26;6.68;;;4.00;;
60068;SDS011;45945;53.350;55.922;2022-09-09T04:03:27;6.43;;;3.60;;
60068;SDS011;45945;53.350;55.922;2022-09-09T04:04:29;7.55;;;3.75;;
60068;SDS011;45945;53.350;55.922;2022-09-09T04:05:30;7.60;;;4.57;;
60068;SDS011;45945;53.350;55.922;2022-09-09T04:06:34;6.53;;;3.42;;
60068;SDS011;45945;53.350;55.922;2022-09-09T04:07:35;8.40;;;4.15;;
60068;SDS011;45945;53.350;55.922;2022-09-09T04:08:36;7.25;;;3.20;;
60068;SDS011;45945;53.350;55.922;2022-09-09T04:09:39;6.53;;;3.08;;
60068;SDS011;45945;53.350;55.922;2022-09-09T04:10:40;6.03;;;2.92;;
60068;SDS011;45945;53.350;55.922;2022-09-09T04:11:42;6.95;;;3.40;;
60068;SDS011;45945;53.350;55.922;2022-09-09T04:12:44;5.93;;;2.85;;
60068;SDS011;45945;53.350;55.922;2022-09-09T04:13:45;6.70;;;3.10;;
60068;SDS011;45945;53.350;55.922;2022-09-09T04:14:47;6.68;;;3.88;;
60068;SDS011;45945;53.350;55.922;2022-09-09T04:15:52;6.20;;;3.28;;
60068;SDS011;45945;53.350;55.922;2022-09-09T04:16:57;6.80;;;3.80;;
60068;SDS011;45945;53.350;55.922;2022-09-09T04:18:00;6.22;;;3.50;;
60068;SDS011;45945;53.350;55.922;2022-09-09T04:19:02;8.02;;;3.50;;
60068;SDS011;45945;53.350;55.922;2022-09-09T04:20:04;6.45;;;3.83;;
60068;SDS011;45945;53.350;55.922;2022-09-09T04:21:08;6.03;;;3.05;;
60068;SDS011;45945;53.350;55.922;2022-09-09T04:22:10;6.60;;;3.72;;
60068;SDS011;45945;53.350;55.922;2022-09-09T04:23:11;6.13;;;3.13;;
60068;SDS011;45945;53.350;55.922;2022-09-09T04:24:12;7.47;;;4.30;;
60068;SDS011;45945;53.350;55.922;2022-09-09T04:25:14;7.80;;;3.15;;
60068;SDS011;45945;53.350;55.922;2022-09-09T04:26:14;6.82;;;3.60;;
60068;SDS011;45945;53.350;55.922;2022-09-09T04:27:18;7.47;;;3.42;;
60068;SDS011;45945;53.350;55.922;2022-09-09T04:28:20;7.18;;;3.35;;
60068;SDS011;45945;53.350;55.922;2022-09-09T04:29:23;7.95;;;3.20;;
60068;SDS011;45945;53.350;55.922;2022-09-09T04:30:25;9.52;;;3.58;;
60068;SDS011;45945;53.350;55.922;2022-09-09T04:31:27;7.40;;;3.95;;
60068;SDS011;45945;53.350;55.922;2022-09-09T04:32:32;8.20;;;3.75;;
60068;SDS011;45945;53.350;55.922;2022-09-09T04:33:33;6.25;;;3.55;;
60068;SDS011;45945;53.350;55.922;2022-09-09T04:34:35;6.30;;;3.10;;
60068;SDS011;45945;53.350;55.922;2022-09-09T04:35:36;8.23;;;3.53;;
60068;SDS011;45945;53.350;55.922;2022-09-09T04:36:38;9.68;;;3.63;;
60068;SDS011;45945;53.350;55.922;2022-09-09T04:37:40;6.40;;;3.45;;
60068;SDS011;45945;53.350;55.922;2022-09-09T04:38:41;7.82;;;3.88;;
60068;SDS011;45945;53.350;55.922;2022-09-09T04:39:45;8.00;;;3.80;;
60068;SDS011;45945;53.350;55.922;2022-09-09T04:40:46;6.18;;;3.45;;
60068;SDS011;45945;53.350;55.922;2022-09-09T04:41:48;6.10;;;3.50;;
60068;SDS011;45945;53.350;55.922;2022-09-09T04:42:50;5.85;;;3.13;;
60068;SDS011;45945;53.350;55.922;2022-09-09T04:43:51;8.27;;;2.80;;
60068;SDS011;45945;53.350;55.922;2022-09-09T04:44:55;5.68;;;2.90;;
60068;SDS011;45945;53.350;55.922;2022-09-09T04:45:56;7.00;;;2.97;;
60068;SDS011;45945;53.350;55.922;2022-09-09T04:46:59;6.90;;;3.63;;
60068;SDS011;45945;53.350;55.922;2022-09-09T04:48:00;5.35;;;2.75;;
60068;SDS011;45945;53.350;55.922;2022-09-09T04:49:03;8.52;;;3.60;;
60068;SDS011;45945;53.350;55.922;2022-09-09T04:50:07;8.05;;;3.38;;
60068;SDS011;45945;53.350;55.922;2022-09-09T04:51:09;6.13;;;3.05;;
60068;SDS011;45945;53.350;55.922;2022-09-09T04:52:13;7.30;;;3.88;;
60068;SDS011;45945;53.350;55.922;2022-09-09T04:53:18;6.50;;;3.45;;
60068;SDS011;45945;53.350;55.922;2022-09-09T04:54:19;8.57;;;3.63;;
60068;SDS011;45945;53.350;55.922;2022-09-09T04:55:20;6.35;;;3.03;;
60068;SDS011;45945;53.350;55.922;2022-09-09T04:56:22;7.32;;;3.58;;
60068;SDS011;45945;53.350;55.922;2022-09-09T04:57:29;7.07;;;3.20;;
60068;SDS011;45945;53.350;55.922;2022-09-09T04:58:32;6.53;;;3.33;;
60068;SDS011;45945;53.350;55.922;2022-09-09T04:59:34;7.70;;;3.80;;
60068;SDS011;45945;53.350;55.922;2022-09-09T05:00:37;6.28;;;3.38;;
60068;SDS011;45945;53.350;55.922;2022-09-09T05:01:40;6.05;;;2.70;;
60068;SDS011;45945;53.350;55.922;2022-09-09T05:02:41;6.65;;;3.42;;
60068;SDS011;45945;53.350;55.922;2022-09-09T05:03:43;7.22;;;3.13;;
60068;SDS011;45945;53.350;55.922;2022-09-09T05:04:50;8.00;;;3.13;;
60068;SDS011;45945;53.350;55.922;2022-09-09T05:05:51;5.70;;;2.95;;
60068;SDS011;45945;53.350;55.922;2022-09-09T05:06:53;6.78;;;2.97;;
60068;SDS011;45945;53.350;55.922;2022-09-09T05:07:54;7.25;;;3.28;;
60068;SDS011;45945;53.350;55.922;2022-09-09T05:08:55;6.30;;;3.70;;
60068;SDS011;45945;53.350;55.922;2022-09-09T05:09:59;6.97;;;3.47;;
60068;SDS011;45945;53.350;55.922;2022-09-09T05:11:01;6.97;;;3.22;;
60068;SDS011;45945;53.350;55.922;2022-09-09T05:12:02;7.40;;;3.55;;
60068;SDS011;45945;53.350;55.922;2022-09-09T05:13:10;9.23;;;3.45;;
60068;SDS011;45945;53.350;55.922;2022-09-09T05:14:12;8.10;;;3.47;;
60068;SDS011;45945;53.350;55.922;2022-09-09T05:15:13;9.63;;;3.70;;
60068;SDS011;45945;53.350;55.922;2022-09-09T05:16:15;7.50;;;3.45;;
60068;SDS011;45945;53.350;55.922;2022-09-09T05:17:16;7.10;;;3.60;;
60068;SDS011;45945;53.350;55.922;2022-09-09T05:18:17;7.57;;;3.72;;
60068;SDS011;45945;53.350;55.922;2022-09-09T05:19:18;7.28;;;4.05;;
60068;SDS011;45945;53.350;55.922;2022-09-09T05:20:23;7.68;;;3.47;;
60068;SDS011;45945;53.350;55.922;2022-09-09T05:21:24;9.73;;;3.80;;
60068;SDS011;45945;53.350;55.922;2022-09-09T05:22:26;8.15;;;3.65;;
60068;SDS011;45945;53.350;55.922;2022-09-09T05:23:28;7.28;;;3.70;;
60068;SDS011;45945;53.350;55.922;2022-09-09T05:24:29;6.65;;;3.50;;
60068;SDS011;45945;53.350;55.922;2022-09-09T05:25:33;6.55;;;3.22;;
60068;SDS011;45945;53.350;55.922;2022-09-09T05:26:34;7.60;;;3.78;;
60068;SDS011;45945;53.350;55.922;2022-09-09T05:27:36;8.40;;;3.75;;
60068;SDS011;45945;53.350;55.922;2022-09-09T05:28:38;7.07;;;3.88;;
60068;SDS011;45945;53.350;55.922;2022-09-09T05:29:40;7.82;;;3.70;;
60068;SDS011;45945;53.350;55.922;2022-09-09T05:30:44;8.68;;;3.90;;
60068;SDS011;45945;53.350;55.922;2022-09-09T05:31:45;7.07;;;3.55;;
60068;SDS011;45945;53.350;55.922;2022-09-09T05:32:49;8.15;;;4.18;;
60068;SDS011;45945;53.350;55.922;2022-09-09T05:33:52;7.72;;;3.45;;
60068;SDS011;45945;53.350;55.922;2022-09-09T05:34:53;9.13;;;4.20;;
60068;SDS011;45945;53.350;55.922;2022-09-09T05:35:58;7.72;;;3.88;;
60068;SDS011;45945;53.350;55.922;2022-09-09T05:36:59;8.60;;;3.63;;
60068;SDS011;45945;53.350;55.922;2022-09-09T05:38:01;8.27;;;3.83;;
60068;SDS011;45945;53.350;55.922;2022-09-09T05:39:02;8.35;;;4.15;;
60068;SDS011;45945;53.350;55.922;2022-09-09T05:40:06;8.77;;;4.05;;
60068;SDS011;45945;53.350;55.922;2022-09-09T05:41:07;7.50;;;4.32;;
60068;SDS011;45945;53.350;55.922;2022-09-09T05:42:10;7.55;;;4.07;;
60068;SDS011;45945;53.350;55.922;2022-09-09T05:43:12;9.23;;;4.63;;
60068;SDS011;45945;53.350;55.922;2022-09-09T05:44:13;8.25;;;4.07;;
60068;SDS011;45945;53.350;55.922;2022-09-09T05:45:14;7.68;;;3.40;;
60068;SDS011;45945;53.350;55.922;2022-09-09T05:46:19;7.35;;;3.67;;
60068;SDS011;45945;53.350;55.922;2022-09-09T05:47:23;9.00;;;3.92;;
60068;SDS011;45945;53.350;55.922;2022-09-09T05:48:27;6.63;;;3.70;;
60068;SDS011;45945;53.350;55.922;2022-09-09T05:49:28;8.43;;;3.70;;
60068;SDS011;45945;53.350;55.922;2022-09-09T05:50:29;9.18;;;4.07;;
60068;SDS011;45945;53.350;55.922;2022-09-09T05:51:30;5.75;;;2.67;;
60068;SDS011;45945;53.350;55.922;2022-09-09T05:52:33;7.97;;;3.70;;
60068;SDS011;45945;53.350;55.922;2022-09-09T05:53:34;9.27;;;4.20;;
60068;SDS011;45945;53.350;55.922;2022-09-09T05:54:39;8.35;;;3.80;;
60068;SDS011;45945;53.350;55.922;2022-09-09T05:55:42;8.23;;;4.05;;
60068;SDS011;45945;53.350;55.922;2022-09-09T05:56:46;6.72;;;3.72;;
60068;SDS011;45945;53.350;55.922;2022-09-09T05:57:49;7.63;;;4.60;;
60068;SDS011;45945;53.350;55.922;2022-09-09T05:58:52;8.45;;;3.55;;
60068;SDS011;45945;53.350;55.922;2022-09-09T05:59:55;7.20;;;4.03;;
60068;SDS011;45945;53.350;55.922;2022-09-09T06:01:03;7.53;;;3.53;;
60068;SDS011;45945;53.350;55.922;2022-09-09T06:02:07;8.20;;;3.60;;
60068;SDS011;45945;53.350;55.922;2022-09-09T06:03:11;6.88;;;3.78;;
60068;SDS011;45945;53.350;55.922;2022-09-09T06:04:13;7.35;;;4.00;;
60068;SDS011;45945;53.350;55.922;2022-09-09T06:05:15;7.50;;;4.45;;
60068;SDS011;45945;53.350;55.922;2022-09-09T06:06:18;8.38;;;4.40;;
60068;SDS011;45945;53.350;55.922;2022-09-09T06:07:25;7.47;;;4.07;;
60068;SDS011;45945;53.350;55.922;2022-09-09T06:08:26;8.32;;;3.90;;
60068;SDS011;45945;53.350;55.922;2022-09-09T06:09:27;7.90;;;4.35;;
60068;SDS011;45945;53.350;55.922;2022-09-09T06:10:30;10.48;;;4.05;;
60068;SDS011;45945;53.350;55.922;2022-09-09T06:11:32;7.05;;;3.90;;
60068;SDS011;45945;53.350;55.922;2022-09-09T06:12:34;9.32;;;4.00;;
60068;SDS011;45945;53.350;55.922;2022-09-09T06:13:36;8.40;;;4.18;;
60068;SDS011;45945;53.350;55.922;2022-09-09T06:14:40;7.60;;;3.85;;
60068;SDS011;45945;53.350;55.922;2022-09-09T06:15:49;7.32;;;3.85;;
60068;SDS011;45945;53.350;55.922;2022-09-09T06:16:51;6.85;;;3.83;;
60068;SDS011;45945;53.350;55.922;2022-09-09T06:17:55;8.98;;;4.00;;
60068;SDS011;45945;53.350;55.922;2022-09-09T06:18:57;8.52;;;4.00;;
60068;SDS011;45945;53.350;55.922;2022-09-09T06:19:59;7.80;;;4.25;;
60068;SDS011;45945;53.350;55.922;2022-09-09T06:21:01;7.10;;;3.63;;
60068;SDS011;45945;53.350;55.922;2022-09-09T06:22:05;8.00;;;4.13;;
60068;SDS011;45945;53.350;55.922;2022-09-09T06:23:09;7.68;;;3.90;;
60068;SDS011;45945;53.350;55.922;2022-09-09T06:24:10;8.05;;;4.25;;
60068;SDS011;45945;53.350;55.922;2022-09-09T06:25:14;8.13;;;4.20;;
60068;SDS011;45945;53.350;55.922;2022-09-09T06:26:16;7.82;;;4.18;;
60068;SDS011;45945;53.350;55.922;2022-09-09T06:27:19;9.27;;;4.40;;
60068;SDS011;45945;53.350;55.922;2022-09-09T06:28:20;7.68;;;4.07;;
60068;SDS011;45945;53.350;55.922;2022-09-09T06:29:21;7.30;;;4.00;;
60068;SDS011;45945;53.350;55.922;2022-09-09T06:30:22;7.95;;;4.18;;
60068;SDS011;45945;53.350;55.922;2022-09-09T06:31:24;6.40;;;2.70;;
60068;SDS011;45945;53.350;55.922;2022-09-09T06:32:27;8.50;;;3.58;;
60068;SDS011;45945;53.350;55.922;2022-09-09T06:33:33;8.13;;;3.80;;
60068;SDS011;45945;53.350;55.922;2022-09-09T06:34:41;9.15;;;4.47;;
60068;SDS011;45945;53.350;55.922;2022-09-09T06:35:42;9.00;;;4.18;;
60068;SDS011;45945;53.350;55.922;2022-09-09T06:36:55;7.05;;;4.15;;
60068;SDS011;45945;53.350;55.922;2022-09-09T06:37:58;8.75;;;3.70;;
60068;SDS011;45945;53.350;55.922;2022-09-09T06:38:59;8.00;;;4.03;;
60068;SDS011;45945;53.350;55.922;2022-09-09T06:40:01;8.02;;;4.00;;
60068;SDS011;45945;53.350;55.922;2022-09-09T06:41:04;6.85;;;3.53;;
60068;SDS011;45945;53.350;55.922;2022-09-09T06:42:07;7.45;;;3.90;;
60068;SDS011;45945;53.350;55.922;2022-09-09T06:43:42;7.55;;;4.03;;
60068;SDS011;45945;53.350;55.922;2022-09-09T06:44:45;8.45;;;3.38;;
60068;SDS011;45945;53.350;55.922;2022-09-09T06:46:03;8.00;;;3.75;;
60068;SDS011;45945;53.350;55.922;2022-09-09T06:47:13;10.70;;;4.63;;
60068;SDS011;45945;53.350;55.922;2022-09-09T06:48:15;6.57;;;3.10;;
60068;SDS011;45945;53.350;55.922;2022-09-09T06:49:16;8.10;;;4.45;;
60068;SDS011;45945;53.350;55.922;2022-09-09T06:50:17;7.57;;;4.18;;
60068;SDS011;45945;53.350;55.922;2022-09-09T06:51:19;7.65;;;4.20;;
60068;SDS011;45945;53.350;55.922;2022-09-09T06:52:22;8.27;;;4.10;;
60068;SDS011;45945;53.350;55.922;2022-09-09T06:53:25;6.80;;;3.72;;
60068;SDS011;45945;53.350;55.922;2022-09-09T06:54:27;7.28;;;4.32;;
60068;SDS011;45945;53.350;55.922;2022-09-09T06:55:29;8.23;;;3.92;;
60068;SDS011;45945;53.350;55.922;2022-09-09T06:57:36;8.35;;;3.67;;
60068;SDS011;45945;53.350;55.922;2022-09-09T06:58:39;7.95;;;4.45;;
60068;SDS011;45945;53.350;55.922;2022-09-09T06:59:46;7.38;;;3.80;;
60068;SDS011;45945;53.350;55.922;2022-09-09T07:00:47;8.07;;;3.75;;
60068;SDS011;45945;53.350;55.922;2022-09-09T07:01:48;7.78;;;4.15;;
60068;SDS011;45945;53.350;55.922;2022-09-09T07:02:52;6.53;;;3.35;;
60068;SDS011;45945;53.350;55.922;2022-09-09T07:03:54;5.88;;;3.55;;
60068;SDS011;45945;53.350;55.922;2022-09-09T07:04:56;7.82;;;3.85;;
60068;SDS011;45945;53.350;55.922;2022-09-09T07:05:59;6.90;;;3.70;;
60068;SDS011;45945;53.350;55.922;2022-09-09T07:07:02;9.32;;;3.90;;
60068;SDS011;45945;53.350;55.922;2022-09-09T07:08:04;6.90;;;4.00;;
60068;SDS011;45945;53.350;55.922;2022-09-09T07:09:07;7.30;;;2.85;;
60068;SDS011;45945;53.350;55.922;2022-09-09T07:10:09;6.35;;;3.25;;